Time;durP1;ratioP1;P1;durP2;ratioP2;P2;SDS_P1;SDS_P2;PMS_P1;PMS_P2;Temp;Humidity;BMP_temperature;BMP_pressure;BME280_temperature;BME280_humidity;BME280_pressure;Samples;Min_cycle;Max_cycle;Signal;HPM_P1;HPM_P2
2022/02/07 00:00:09;;;;;;;;;;;;;;;5.15;71.88;101479.75;7360141;19;19911;-60
2022/02/07 00:05:26;;;;;;;;;;;;;;;5.10;71.50;101487.44;7358884;19;19914;-59
2022/02/07 00:08:11;;;;;;;;;;;;;;;5.07;71.98;101497.78;6599258;19;10000432;-60
2022/02/07 00:10:38;;;;;;;;;;;;;;;5.06;71.93;101495.16;2738878;19;10002148;-60
2022/02/07 00:13:03;;;;;;;;;;;;;;;5.04;72.09;101504.63;7349663;19;21906;-61
2022/02/07 00:15:28;;;;;;;;;;;;;;;5.01;71.65;101512.34;7359560;19;20001;-59
2022/02/07 00:17:54;;;;;;;;;;;;;;;5.00;72.05;101510.63;7357690;19;20412;-60
2022/02/07 00:20:21;;;;;;;;;;;;;;;4.97;72.06;101520.91;7352563;19;19933;-60
2022/02/07 00:22:47;;;;;;;;;;;;;;;4.95;71.98;101523.50;7356792;19;19975;-59
2022/02/07 00:25:13;;;;;;;;;;;;;;;4.92;71.75;101524.34;7355562;19;19915;-59
2022/02/07 00:27:39;;;;;;;;;;;;;;;4.91;72.06;101521.72;7358644;19;19940;-59
2022/02/07 00:30:06;;;;;;;;;;;;;;;4.90;72.17;101525.16;7364788;19;19918;-60
2022/02/07 00:32:31;;;;;;;;;;;;;;;4.87;72.00;101526.00;7357362;19;19919;-59
2022/02/07 00:34:56;;;;;;;;;;;;;;;4.85;72.24;101527.69;7365449;19;19921;-60
2022/02/07 00:37:24;;;;;;;;;;;;;;;4.84;71.71;101515.59;7351950;19;19918;-59
2022/02/07 00:39:56;;;;;;;;;;;;;;;4.82;72.22;101527.66;7361244;19;19927;-60
2022/02/07 00:42:30;;;;;;;;;;;;;;;4.81;71.83;101537.94;7359615;19;19919;-60
2022/02/07 00:45:00;;;;;;;;;;;;;;;4.70;72.06;101537.81;7357759;19;19922;-60
2022/02/07 00:47:25;;;;;;;;;;;;;;;4.77;72.30;101560.34;7355280;19;19919;-60
2022/02/07 00:49:50;;;;;;;;;;;;;;;4.75;72.29;101577.56;7354278;19;19929;-60
2022/02/07 00:52:16;;;;;;;;;;;;;;;4.74;72.10;101580.13;7355539;19;19927;-60
2022/02/07 00:54:41;;;;;;;;;;;;;;;4.72;72.38;101577.53;7359280;19;19936;-60
2022/02/07 00:57:06;;;;;;;;;;;;;;;4.72;72.40;101587.00;7366236;19;19960;-61
2022/02/07 00:59:31;;;;;;;;;;;;;;;4.70;72.16;101594.72;7365025;19;19915;-60
2022/02/07 01:01:57;;;;;;;;;;;;;;;4.69;72.42;101593.00;7364447;19;20290;-59
2022/02/07 01:04:22;;;;;;;;;;;;;;;4.69;72.13;101598.16;7358817;19;19923;-61
2022/02/07 01:06:47;;;;;;;;;;;;;;;4.68;72.45;101601.59;7357228;19;20272;-61
2022/02/07 01:09:25;;;;;;;;;;;;;;;4.67;72.18;101600.72;7366731;19;19926;-60
2022/02/07 01:12:08;;;;;;;;;;;;;;;4.66;72.57;101595.50;7369407;19;19918;-58
2022/02/07 01:14:47;;;;;;;;;;;;;;;4.66;72.56;101600.69;7358424;19;19948;-60
2022/02/07 01:57:36;;;;;;;;;;;;;;;4.54;72.74;101609.13;7369584;19;19918;-61
2022/02/07 02:00:17;;;;;;;;;;;;;;;4.49;73.13;101604.72;4047548;19;10001127;-59
2022/02/07 02:02:42;;;;;;;;;;;;;;;4.54;72.88;101613.44;5637471;19;10001229;-61
2022/02/07 02:05:08;;;;;;;;;;;;;;;4.54;72.93;101621.19;7363575;19;19933;-61
2022/02/07 02:07:33;;;;;;;;;;;;;;;4.51;72.59;101634.97;7357597;19;19934;-59
2022/02/07 02:09:58;;;;;;;;;;;;;;;4.51;72.77;101639.22;7360737;19;19926;-61
2022/02/07 02:12:27;;;;;;;;;;;;;;;4.49;72.99;101651.28;7367696;19;20340;-61
2022/02/07 02:17:58;;;;;;;;;;;;;;;4.45;72.97;101649.47;7368013;19;19925;-59
2022/02/07 02:46:29;;;;;;;;;;;;;;;4.26;73.15;101659.50;7365454;19;20289;-59
2022/02/07 02:49:00;;;;;;;;;;;;;;;4.26;73.20;101656.94;7360264;19;19919;-59
2022/02/07 02:51:26;;;;;;;;;;;;;;;4.26;73.52;101654.34;7363086;19;19914;-61
2022/02/07 02:53:51;;;;;;;;;;;;;;;4.26;73.11;101644.00;7364212;19;19949;-60
2022/02/07 02:56:16;;;;;;;;;;;;;;;4.27;73.25;101656.06;7360773;19;19918;-59
2022/02/07 02:58:42;;;;;;;;;;;;;;;4.28;73.63;101652.66;7358768;19;19986;-58
2022/02/07 03:01:07;;;;;;;;;;;;;;;4.30;73.68;101653.53;7364805;19;19927;-61
2022/02/07 03:03:32;;;;;;;;;;;;;;;4.33;73.54;101655.31;7367263;19;19915;-61
2022/02/07 03:05:57;;;;;;;;;;;;;;;4.35;73.38;101649.31;7347360;19;19949;-61
2022/02/07 03:08:23;;;;;;;;;;;;;;;4.36;73.33;101640.75;7355969;19;19960;-59
2022/02/07 03:13:47;;;;;;;;;;;;;;;4.41;73.80;101639.09;7362443;19;19948;-60
2022/02/07 03:18:48;;;;;;;;;;;;;;;4.45;73.55;101631.38;7361299;19;19962;-59
2022/02/07 03:21:13;;;;;;;;;;;;;;;4.46;73.36;101621.09;7361982;19;19915;-60
2022/02/07 03:23:38;;;;;;;;;;;;;;;4.48;73.74;101610.75;7361543;19;19918;-60
2022/02/07 03:26:04;;;;;;;;;;;;;;;4.49;73.67;101608.19;7364133;19;20025;-61
2022/02/07 03:28:29;;;;;;;;;;;;;;;4.50;73.33;101601.28;7362787;19;19926;-60
2022/02/07 03:30:55;;;;;;;;;;;;;;;4.51;73.64;101584.91;7355673;19;19975;-60
2022/02/07 03:33:21;;;;;;;;;;;;;;;4.51;73.53;101585.81;7361405;19;19919;-59
2022/02/07 03:35:46;;;;;;;;;;;;;;;4.52;73.60;101584.97;7354564;19;19927;-59
2022/02/07 03:38:12;;;;;;;;;;;;;;;4.52;73.72;101586.69;7360267;19;19934;-61
2022/02/07 03:40:38;;;;;;;;;;;;;;;4.54;73.74;101592.75;7365141;19;19927;-60
2022/02/07 03:43:03;;;;;;;;;;;;;;;4.54;74.00;101606.53;7359530;19;19933;-59
2022/02/07 03:45:29;;;;;;;;;;;;;;;4.57;73.68;101618.66;7360102;19;19919;-59
2022/02/07 03:47:54;;;;;;;;;;;;;;;4.60;73.87;101634.22;7361110;19;19926;-59
2022/02/07 03:50:29;;;;;;;;;;;;;;;4.61;73.55;101643.72;6077379;19;10000582;-60
2022/02/07 03:52:54;;;;;;;;;;;;;;;4.62;73.87;101635.13;2738078;19;10002008;-60
2022/02/07 03:55:19;;;;;;;;;;;;;;;4.63;73.87;101634.28;7365976;19;20276;-60
2022/02/07 03:57:45;;;;;;;;;;;;;;;4.65;73.89;101632.59;7363550;19;20025;-60
2022/02/07 04:00:14;;;;;;;;;;;;;;;4.65;73.74;101632.59;7362176;19;19930;-60
2022/02/07 04:02:43;;;;;;;;;;;;;;;4.67;74.02;101625.75;7362588;19;20257;-60
2022/02/07 04:07:53;;;;;;;;;;;;;;;4.72;73.90;101612.88;7364841;19;19925;-59
2022/02/07 04:10:19;;;;;;;;;;;;;;;4.72;73.95;101602.53;7360418;19;19919;-61
2022/02/07 04:12:50;;;;;;;;;;;;;;;4.74;74.16;101606.88;7362022;19;19923;-59
2022/02/07 04:15:18;;;;;;;;;;;;;;;4.74;74.00;101624.13;7362962;19;20013;-59
2022/02/07 04:17:49;;;;;;;;;;;;;;;4.75;73.81;101631.88;7365101;19;19947;-60
2022/02/07 04:20:16;;;;;;;;;;;;;;;4.76;74.01;101620.69;7358263;19;19919;-60
2022/02/07 04:22:43;;;;;;;;;;;;;;;4.77;73.57;101627.63;7365826;19;19929;-59
2022/02/07 04:25:08;;;;;;;;;;;;;;;4.78;73.63;101629.34;7364280;19;19929;-61
2022/02/07 04:27:34;;;;;;;;;;;;;;;4.79;73.81;101619.88;7374227;19;19915;-61
2022/02/07 04:29:59;;;;;;;;;;;;;;;4.80;73.88;101617.31;7366690;19;20260;-59
2022/02/07 04:32:24;;;;;;;;;;;;;;;4.81;74.01;101611.28;7371474;19;19919;-60
2022/02/07 04:34:49;;;;;;;;;;;;;;;4.84;74.25;101613.94;7368984;19;19926;-61
2022/02/07 04:37:15;;;;;;;;;;;;;;;4.86;73.80;101612.22;7359529;19;19923;-60
2022/02/07 04:39:40;;;;;;;;;;;;;;;4.89;74.23;101617.44;7371911;19;19915;-60
2022/02/07 04:42:09;;;;;;;;;;;;;;;4.93;73.93;101608.03;7363941;19;19923;-59
2022/02/07 04:44:55;;;;;;;;;;;;;;;4.99;74.41;101608.09;7368438;19;19919;-61
2022/02/07 04:50:22;;;;;;;;;;;;;;;5.09;74.09;101614.28;7371408;19;20642;-59
2022/02/07 04:57:48;;;;;;;;;;;;;;;5.28;74.28;101631.84;7368986;19;19923;-59
2022/02/07 05:03:05;;;;;;;;;;;;;;;5.41;74.67;101633.72;7370200;19;19915;-59
2022/02/07 05:16:07;;;;;;;;;;;;;;;5.78;74.70;101644.59;7369807;19;20324;-60
2022/02/07 05:18:32;;;;;;;;;;;;;;;5.85;74.45;101648.97;7367281;19;20368;-59
2022/02/07 05:20:57;;;;;;;;;;;;;;;5.93;74.38;101665.53;7367546;19;19926;-60
2022/02/07 05:23:23;;;;;;;;;;;;;;;6.00;74.31;101661.28;7367092;19;19911;-61
2022/02/07 05:25:48;;;;;;;;;;;;;;;6.06;74.47;101650.09;7370147;19;19928;-60
2022/02/07 05:28:13;;;;;;;;;;;;;;;6.12;74.61;101648.44;7368792;19;19934;-60
2022/02/07 05:30:39;;;;;;;;;;;;;;;6.17;74.35;101654.53;7369807;19;20373;-60
2022/02/07 05:33:04;;;;;;;;;;;;;;;6.24;74.24;101655.50;7369546;19;20329;-60
2022/02/07 05:35:29;;;;;;;;;;;;;;;6.30;74.19;101663.34;7369385;19;19922;-59
2022/02/07 05:37:55;;;;;;;;;;;;;;;6.35;74.47;101671.16;7367385;19;19915;-61
2022/02/07 05:40:58;;;;;;;;;;;;;;;6.39;74.16;101671.22;7367561;19;19926;-60
2022/02/07 05:43:14;;;;;;;;;;;;;;;6.46;74.19;101666.94;7365861;19;19919;-61
2022/02/07 05:45:40;;;;;;;;;;;;;;;6.50;74.35;101669.59;7368283;19;19951;-59
2022/02/07 05:48:05;;;;;;;;;;;;;;;6.55;74.07;101663.59;7371041;19;19978;-59
2022/02/07 05:50:30;;;;;;;;;;;;;;;6.60;74.09;101669.69;1075444;19;10001779;-61
2022/02/07 05:52:56;;;;;;;;;;;;;;;6.66;74.45;101664.53;7370231;19;19923;-60
2022/02/07 05:55:22;;;;;;;;;;;;;;;6.70;74.11;101666.31;7367802;19;19918;-61
2022/02/07 05:57:47;;;;;;;;;;;;;;;6.74;74.16;101673.25;7366717;19;19922;-60
2022/02/07 06:00:12;;;;;;;;;;;;;;;6.78;74.42;101664.63;7360778;19;19935;-59
2022/02/07 06:02:38;;;;;;;;;;;;;;;6.83;73.91;101654.28;7368662;19;19914;-60
2022/02/07 06:05:03;;;;;;;;;;;;;;;6.88;74.45;101650.88;7366431;19;19926;-60
2022/02/07 06:07:28;;;;;;;;;;;;;;;6.91;73.91;101650.91;7367361;19;19914;-61
2022/02/07 06:09:54;;;;;;;;;;;;;;;6.96;73.96;101644.00;7364443;19;19918;-59
2022/02/07 06:12:19;;;;;;;;;;;;;;;7.00;74.18;101643.19;7369447;19;19919;-60
2022/02/07 06:14:44;;;;;;;;;;;;;;;7.06;74.28;101641.50;7350090;19;19917;-59
2022/02/07 06:17:11;;;;;;;;;;;;;;;7.09;73.99;101639.75;7368802;19;20337;-61
2022/02/07 06:19:37;;;;;;;;;;;;;;;7.14;74.00;101642.38;7368056;19;19927;-60
2022/02/07 06:22:02;;;;;;;;;;;;;;;7.17;74.24;101638.09;7365437;19;21260;-60
2022/02/07 06:24:27;;;;;;;;;;;;;;;7.23;74.08;101637.25;7368373;19;19922;-59
2022/02/07 06:26:53;;;;;;;;;;;;;;;7.27;74.43;101628.63;7364392;19;19918;-60
2022/02/07 06:29:18;;;;;;;;;;;;;;;7.31;73.92;101634.72;7368208;19;19990;-60
2022/02/07 06:31:43;;;;;;;;;;;;;;;7.35;74.25;101646.84;7358835;19;19922;-60
2022/02/07 06:34:08;;;;;;;;;;;;;;;7.38;74.09;101642.53;7359517;19;20256;-61
2022/02/07 06:36:34;;;;;;;;;;;;;;;7.41;74.13;101639.97;7365279;19;19923;-61
2022/02/07 06:38:59;;;;;;;;;;;;;;;7.44;74.18;101642.56;7365105;19;19949;-59
2022/02/07 06:41:24;;;;;;;;;;;;;;;7.45;74.21;101639.13;7356958;19;19927;-61
2022/02/07 06:43:50;;;;;;;;;;;;;;;7.47;73.89;101640.00;7366308;19;19955;-61
2022/02/07 06:46:15;;;;;;;;;;;;;;;7.47;74.17;101642.59;7360705;19;19919;-61
2022/02/07 06:48:40;;;;;;;;;;;;;;;7.50;73.97;101644.31;7358201;19;19987;-59
2022/02/07 06:51:06;;;;;;;;;;;;;;;7.49;73.77;101637.41;7355985;19;19915;-60
2022/02/07 06:53:31;;;;;;;;;;;;;;;7.50;73.77;101632.22;7364986;19;19974;-61
2022/02/07 06:55:57;;;;;;;;;;;;;;;7.50;73.90;101627.03;7360395;19;19918;-59
2022/02/07 06:58:22;;;;;;;;;;;;;;;7.51;73.93;101628.75;7364365;19;19915;-59
2022/02/07 07:00:48;;;;;;;;;;;;;;;7.54;74.18;101628.75;7359519;19;19923;-59
2022/02/07 07:03:17;;;;;;;;;;;;;;;7.56;74.38;101630.53;7365003;19;19919;-60
2022/02/07 07:05:42;;;;;;;;;;;;;;;7.57;74.42;101627.91;7366538;19;19927;-60
2022/02/07 07:08:08;;;;;;;;;;;;;;;7.58;73.92;101634.84;7362598;19;20261;-60
2022/02/07 07:10:34;;;;;;;;;;;;;;;7.61;74.37;101634.00;7367054;19;20266;-60
2022/02/07 07:13:15;;;;;;;;;;;;;;;7.63;74.52;101624.47;7361407;19;19911;-60
2022/02/07 07:15:51;;;;;;;;;;;;;;;7.65;74.21;101617.53;7368683;19;20014;-59
2022/02/07 07:18:20;;;;;;;;;;;;;;;7.67;74.56;101621.03;7370405;19;19957;-60
2022/02/07 07:20:46;;;;;;;;;;;;;;;7.69;74.30;101617.56;7371725;19;19929;-60
2022/02/07 07:23:12;;;;;;;;;;;;;;;7.73;74.50;101618.44;7371624;19;19918;-60
2022/02/07 07:25:39;;;;;;;;;;;;;;;7.75;74.27;101612.38;7371872;19;19923;-60
2022/02/07 07:28:08;;;;;;;;;;;;;;;7.78;74.64;101606.34;7365252;19;19915;-61
2022/02/07 07:30:38;;;;;;;;;;;;;;;7.82;74.75;101612.41;7361708;19;19915;-59
2022/02/07 07:33:09;;;;;;;;;;;;;;;7.83;74.68;101599.41;7366169;19;19911;-59
2022/02/07 07:35:34;;;;;;;;;;;;;;;7.89;74.74;101606.38;7358456;19;20677;-61
2022/02/07 07:38:00;;;;;;;;;;;;;;;7.90;74.63;101601.16;7361588;19;19927;-60
2022/02/07 07:40:36;;;;;;;;;;;;;;;7.93;74.41;101590.78;2338768;19;10022030;-59
2022/02/07 07:43:05;;;;;;;;;;;;;;;7.97;74.53;101596.84;6648171;19;10001123;-60
2022/02/07 07:45:33;;;;;;;;;;;;;;;7.99;74.55;101598.59;7362556;19;19921;-60
2022/02/07 07:48:02;;;;;;;;;;;;;;;8.01;74.48;101604.69;7362585;19;19928;-59
2022/02/07 07:55:28;;;;;;;;;;;;;;;8.11;74.88;101602.97;7355743;19;19911;-59
2022/02/07 08:03:25;;;;;;;;;;;;;;;8.23;75.09;101600.38;7375698;19;20461;-60
2022/02/07 08:06:11;;;;;;;;;;;;;;;8.28;75.33;101618.59;7376397;19;19922;-61
2022/02/07 08:08:45;;;;;;;;;;;;;;;8.33;75.24;101603.84;7375706;19;19940;-60
2022/02/07 08:11:13;;;;;;;;;;;;;;;8.38;75.08;101612.56;7360217;19;20346;-60
2022/02/07 08:13:41;;;;;;;;;;;;;;;8.43;75.25;101608.22;7368363;19;19922;-60
2022/02/07 08:16:06;;;;;;;;;;;;;;;8.49;75.62;101603.03;7357887;19;19918;-61
2022/02/07 08:18:32;;;;;;;;;;;;;;;8.55;75.71;101602.16;7362555;19;19918;-59
2022/02/07 08:20:57;;;;;;;;;;;;;;;8.61;75.35;101596.06;7358211;19;19914;-60
2022/02/07 08:23:22;;;;;;;;;;;;;;;8.67;75.74;101591.75;7360016;19;19915;-59
2022/02/07 08:25:48;;;;;;;;;;;;;;;8.73;75.55;101596.09;7352100;19;19918;-61
2022/02/07 08:28:13;;;;;;;;;;;;;;;8.78;76.03;101594.34;7341922;19;19952;-61
2022/02/07 08:30:38;;;;;;;;;;;;;;;8.83;75.91;101592.59;7337500;19;19923;-60
2022/02/07 08:33:04;;;;;;;;;;;;;;;8.88;75.73;101585.66;7346044;19;19956;-61
2022/02/07 08:35:30;;;;;;;;;;;;;;;8.94;76.05;101590.84;7345891;19;19910;-61
2022/02/07 08:37:56;;;;;;;;;;;;;;;8.98;75.88;101587.38;7350170;19;19922;-61
2022/02/07 08:40:23;;;;;;;;;;;;;;;9.04;76.10;101595.16;7351446;19;19927;-60
2022/02/07 08:42:48;;;;;;;;;;;;;;;9.08;75.57;101601.25;7356983;19;19915;-61
2022/02/07 08:45:15;;;;;;;;;;;;;;;9.14;76.24;101582.13;7364558;19;19978;-60
2022/02/07 08:47:41;;;;;;;;;;;;;;;9.19;76.29;101580.38;7362470;19;19932;-59
2022/02/07 08:50:07;;;;;;;;;;;;;;;9.23;76.21;101582.09;7362141;19;20533;-60
2022/02/07 08:52:33;;;;;;;;;;;;;;;9.27;76.32;101576.84;7361242;19;20345;-60
2022/02/07 08:55:00;;;;;;;;;;;;;;;9.32;76.18;101571.63;7362153;19;19922;-60
2022/02/07 08:57:32;;;;;;;;;;;;;;;9.38;76.60;101578.53;7358474;19;20366;-61
2022/02/07 09:00:24;;;;;;;;;;;;;;;9.42;76.20;101578.53;7367632;19;19919;-61
2022/02/07 09:05:33;;;;;;;;;;;;;;;9.49;76.24;101590.69;7369908;19;19927;-61
2022/02/07 09:10:33;;;;;;;;;;;;;;;9.59;76.94;101587.16;7363343;19;19933;-59
2022/02/07 09:12:58;;;;;;;;;;;;;;;9.65;76.77;101588.03;7361608;19;19923;-60
2022/02/07 09:17:55;;;;;;;;;;;;;;;9.76;77.13;101583.59;7364154;19;19922;-61
2022/02/07 09:20:20;;;;;;;;;;;;;;;9.84;77.18;101587.06;7355737;19;19925;-61
2022/02/07 09:22:47;;;;;;;;;;;;;;;9.91;77.17;101588.75;7364646;19;19918;-61
2022/02/07 09:25:12;;;;;;;;;;;;;;;9.99;77.30;101589.56;7369646;19;20361;-61
2022/02/07 09:27:38;;;;;;;;;;;;;;;10.07;76.87;101590.38;7359432;19;19999;-60
2022/02/07 09:30:23;;;;;;;;;;;;;;;10.10;76.81;101572.09;2871985;19;10020875;-61
2022/02/07 09:32:49;;;;;;;;;;;;;;;10.22;77.17;101591.16;6544845;19;10001263;-59
2022/02/07 09:35:14;;;;;;;;;;;;;;;10.27;76.79;101592.03;7370367;19;19941;-60
2022/02/07 09:37:40;;;;;;;;;;;;;;;10.32;77.01;101590.25;7367541;19;19934;-60
2022/02/07 09:40:06;;;;;;;;;;;;;;;10.37;77.21;101583.25;7368019;19;19919;-59
2022/02/07 09:42:32;;;;;;;;;;;;;;;10.38;77.03;101583.22;7367608;19;19974;-61
2022/02/07 09:45:07;;;;;;;;;;;;;;;10.50;76.89;101584.91;7359432;19;19923;-60
2022/02/07 09:47:33;;;;;;;;;;;;;;;10.59;76.93;101590.03;7371440;19;20007;-60
2022/02/07 09:49:58;;;;;;;;;;;;;;;10.68;77.18;101593.44;7372313;19;19978;-59
2022/02/07 09:52:24;;;;;;;;;;;;;;;10.76;76.93;101596.84;7373754;19;19930;-60
2022/02/07 09:54:49;;;;;;;;;;;;;;;10.84;77.39;101589.78;7364282;19;19914;-59
2022/02/07 09:57:18;;;;;;;;;;;;;;;10.93;77.26;101596.69;7376611;19;19911;-60
2022/02/07 09:59:44;;;;;;;;;;;;;;;11.01;77.09;101592.25;7354942;19;19930;-60
2022/02/07 10:03:14;;;;;;;;;;;;;;;11.08;77.20;101588.69;7367710;19;20005;-60
2022/02/07 10:05:25;;;;;;;;;;;;;;;11.17;77.16;101594.69;7260992;19;2004340;-60
2022/02/07 10:08:03;;;;;;;;;;;;;;;11.26;76.83;101592.88;7362222;19;19929;-60
2022/02/07 10:15:53;;;;;;;;;;;;;;;11.45;76.91;101583.91;7367742;19;19931;-59
2022/02/07 10:18:57;;;;;;;;;;;;;;;11.54;76.55;101599.50;7365207;19;19938;-61
2022/02/07 10:40:24;;;;;;;;;;;;;;;12.06;76.90;101601.44;7374216;19;19919;-59
2022/02/07 10:43:08;;;;;;;;;;;;;;;12.24;77.48;101586.34;7374381;19;20614;-60
2022/02/07 10:45:35;;;;;;;;;;;;;;;12.51;77.35;101587.66;7373199;19;19993;-60
2022/02/07 10:48:05;;;;;;;;;;;;;;;12.79;77.74;101601.19;7359461;19;19918;-60
2022/02/07 10:50:30;;;;;;;;;;;;;;;13.07;76.82;101591.91;7371504;19;20233;-61
2022/02/07 10:52:57;;;;;;;;;;;;;;;13.27;76.13;101601.19;7372316;19;19944;-60
2022/02/07 10:55:25;;;;;;;;;;;;;;;13.38;75.83;101588.72;7359558;19;19919;-61
2022/02/07 10:57:52;;;;;;;;;;;;;;;13.41;75.30;101599.16;7349156;19;20489;-60
2022/02/07 11:00:22;;;;;;;;;;;;;;;13.37;74.85;101594.88;7371214;19;20690;-60
2022/02/07 11:05:40;;;;;;;;;;;;;;;13.22;74.52;101610.00;7363257;19;19933;-60
2022/02/07 11:11:04;;;;;;;;;;;;;;;13.08;74.72;101604.16;7368630;19;19946;-60
2022/02/07 11:13:51;;;;;;;;;;;;;;;13.01;74.90;101604.28;7363950;19;19930;-60
2022/02/07 11:19:01;;;;;;;;;;;;;;;13.02;75.73;101603.38;7364582;19;20040;-60
2022/02/07 11:24:18;;;;;;;;;;;;;;;13.17;75.49;101597.84;7366072;19;19915;-60
2022/02/07 11:26:49;;;;;;;;;;;;;;;13.22;74.99;101617.00;7369735;19;19915;-61
2022/02/07 11:29:34;;;;;;;;;;;;;;;13.27;75.26;101614.31;7371481;19;20312;-60
2022/02/07 11:32:00;;;;;;;;;;;;;;;13.39;75.76;101608.84;7369444;19;19919;-59
2022/02/07 11:34:39;;;;;;;;;;;;;;;13.58;76.54;101628.53;7374135;19;19911;-60
2022/02/07 11:37:31;;;;;;;;;;;;;;;13.84;75.93;101624.50;7375726;19;19954;-60
2022/02/07 11:39:56;;;;;;;;;;;;;;;14.04;75.30;101635.47;7277974;19;2004323;-59
2022/02/07 11:42:21;;;;;;;;;;;;;;;14.12;74.94;101619.53;7375855;19;19919;-59
2022/02/07 11:45:07;;;;;;;;;;;;;;;14.15;74.02;101628.19;7375074;19;19982;-60
2022/02/07 11:47:33;;;;;;;;;;;;;;;14.13;73.51;101640.50;7340228;19;23628;-61
2022/02/07 11:50:07;;;;;;;;;;;;;;;14.07;73.74;101624.00;1076715;19;10002107;-60
2022/02/07 11:52:41;;;;;;;;;;;;;;;14.08;74.44;101639.72;7365857;19;19930;-61
2022/02/07 11:55:15;;;;;;;;;;;;;;;14.21;75.28;101625.44;7356956;19;20376;-62
2022/02/07 11:57:50;;;;;;;;;;;;;;;14.51;75.44;101620.38;7372076;19;19923;-60
2022/02/07 12:00:17;;;;;;;;;;;;;;;14.86;75.51;101627.41;7377159;19;19919;-59
2022/02/07 12:02:48;;;;;;;;;;;;;;;15.21;75.03;101637.00;7377432;19;20256;-60
2022/02/07 12:05:15;;;;;;;;;;;;;;;15.60;73.80;101620.97;7374466;19;19932;-60
2022/02/07 12:07:41;;;;;;;;;;;;;;;15.82;72.92;101614.22;7372782;19;19923;-62
2022/02/07 12:12:42;;;;;;;;;;;;;;;15.95;70.83;101611.22;7364239;19;19921;-61
2022/02/07 12:15:38;;;;;;;;;;;;;;;15.87;70.28;101631.66;7372596;19;19930;-60
2022/02/07 12:18:12;;;;;;;;;;;;;;;15.72;69.51;101631.22;7275156;19;2004399;-59
2022/02/07 12:20:37;;;;;;;;;;;;;;;15.57;69.76;101626.34;7375422;19;19918;-60
2022/02/07 12:23:07;;;;;;;;;;;;;;;15.45;69.91;101624.03;7375002;19;19915;-61
2022/02/07 12:25:42;;;;;;;;;;;;;;;15.34;69.80;101611.19;7371720;19;19919;-58
2022/02/07 12:28:12;;;;;;;;;;;;;;;15.25;69.59;101620.19;7367765;19;19914;-60
2022/02/07 12:33:09;;;;;;;;;;;;;;;15.14;69.60;101622.25;7358122;19;19932;-60
2022/02/07 12:35:34;;;;;;;;;;;;;;;15.11;69.87;101611.84;7369566;19;19926;-61
2022/02/07 12:37:59;;;;;;;;;;;;;;;15.05;69.77;101606.72;7369044;19;19919;-60
2022/02/07 12:40:25;;;;;;;;;;;;;;;14.96;69.55;101612.25;7361284;19;19946;-60
2022/02/07 12:42:51;;;;;;;;;;;;;;;14.86;69.55;101606.38;7362793;19;19923;-61
2022/02/07 12:45:25;;;;;;;;;;;;;;;14.74;69.99;101612.78;7364564;19;19932;-60
2022/02/07 12:47:51;;;;;;;;;;;;;;;14.62;69.73;101607.84;7367007;19;19930;-60
2022/02/07 12:50:18;;;;;;;;;;;;;;;14.51;69.94;101609.88;7365815;19;19941;-60
2022/02/07 12:52:43;;;;;;;;;;;;;;;14.40;70.28;101606.63;7365331;19;20006;-62
2022/02/07 12:55:12;;;;;;;;;;;;;;;14.28;70.35;101600.72;7364049;19;20374;-61
2022/02/07 12:57:41;;;;;;;;;;;;;;;14.18;70.30;101614.13;7367227;19;19927;-61
2022/02/07 13:00:08;;;;;;;;;;;;;;;14.04;70.63;101603.94;7360545;19;19921;-60
2022/02/07 13:02:33;;;;;;;;;;;;;;;13.93;70.73;101600.69;7372172;19;19914;-60
2022/02/07 13:04:58;;;;;;;;;;;;;;;13.85;71.28;101613.13;7367327;19;19963;-60
2022/02/07 13:07:25;;;;;;;;;;;;;;;13.80;71.80;101605.34;7367884;19;19915;-60
2022/02/07 13:09:55;;;;;;;;;;;;;;;13.81;71.97;101600.97;7373600;19;19979;-61
2022/02/07 13:14:59;;;;;;;;;;;;;;;14.04;73.48;101582.94;7362513;19;19922;-60
2022/02/07 13:17:27;;;;;;;;;;;;;;;14.20;73.43;101572.94;7364035;19;19947;-60
2022/02/07 13:19:53;;;;;;;;;;;;;;;14.35;72.82;101576.97;7354591;19;19922;-60
2022/02/07 13:22:21;;;;;;;;;;;;;;;14.50;72.32;101580.09;7361639;19;20332;-62
2022/02/07 13:24:47;;;;;;;;;;;;;;;14.61;71.70;101560.56;7359152;19;20380;-59
2022/02/07 13:27:14;;;;;;;;;;;;;;;14.67;71.75;101579.66;7366806;19;20392;-60
2022/02/07 13:29:44;;;;;;;;;;;;;;;14.74;71.43;101581.22;7365549;19;20471;-61
2022/02/07 13:32:10;;;;;;;;;;;;;;;14.78;71.10;101566.25;7364576;19;20676;-61
2022/02/07 13:34:36;;;;;;;;;;;;;;;14.80;70.63;101569.72;7364394;19;19926;-60
2022/02/07 13:37:15;;;;;;;;;;;;;;;14.79;70.18;101562.69;7366008;19;20293;-60
2022/02/07 13:39:52;;;;;;;;;;;;;;;14.73;69.83;101565.50;7361729;19;21006;-61
2022/02/07 13:42:17;;;;;;;;;;;;;;;14.66;69.29;101570.06;1162845;19;10001971;-61
2022/02/07 13:44:43;;;;;;;;;;;;;;;14.59;69.28;101560.59;7359658;19;19942;-60
2022/02/07 13:47:10;;;;;;;;;;;;;;;14.50;68.85;101574.84;7365337;19;19919;-60
2022/02/07 13:49:54;;;;;;;;;;;;;;;14.43;69.15;101553.97;7365304;19;19999;-60
2022/02/07 13:52:19;;;;;;;;;;;;;;;14.34;68.89;101554.19;7368986;19;19922;-59
2022/02/07 13:54:44;;;;;;;;;;;;;;;14.26;69.04;101557.88;7356378;19;19953;-60
2022/02/07 13:57:11;;;;;;;;;;;;;;;14.20;69.16;101552.78;7374735;19;20344;-61
2022/02/07 13:59:37;;;;;;;;;;;;;;;14.13;68.72;101540.69;7370742;19;19918;-62
2022/02/07 14:02:03;;;;;;;;;;;;;;;14.08;69.13;101547.81;7372882;19;19915;-60
2022/02/07 14:04:30;;;;;;;;;;;;;;;14.02;69.12;101534.81;7370120;19;19982;-59
2022/02/07 14:07:04;;;;;;;;;;;;;;;13.97;68.95;101540.19;7374001;19;19934;-59
2022/02/07 14:09:30;;;;;;;;;;;;;;;13.93;68.83;101540.28;7372913;19;20362;-61
2022/02/07 14:11:58;;;;;;;;;;;;;;;13.89;69.10;101541.25;7373850;19;19911;-61
2022/02/07 14:14:25;;;;;;;;;;;;;;;13.86;69.53;101551.84;7368735;19;19948;-61
2022/02/07 14:16:50;;;;;;;;;;;;;;;13.84;69.36;101543.13;7369556;19;19935;-61
2022/02/07 14:19:17;;;;;;;;;;;;;;;13.82;69.26;101531.78;7373976;19;19964;-60
2022/02/07 14:21:43;;;;;;;;;;;;;;;13.81;69.11;101530.06;7375322;19;19922;-60
2022/02/07 14:24:08;;;;;;;;;;;;;;;13.77;69.39;101526.66;7362358;19;20371;-60
2022/02/07 14:26:37;;;;;;;;;;;;;;;13.74;69.02;101532.84;7363281;19;19914;-60
2022/02/07 14:29:04;;;;;;;;;;;;;;;13.68;68.86;101564.44;7365396;19;19919;-59
2022/02/07 14:31:30;;;;;;;;;;;;;;;13.64;68.67;101531.31;7368843;19;20082;-60
2022/02/07 14:33:56;;;;;;;;;;;;;;;13.61;69.29;101534.00;7372475;19;19918;-60
2022/02/07 14:36:22;;;;;;;;;;;;;;;13.58;69.24;101531.44;7367939;19;19945;-61
2022/02/07 14:38:47;;;;;;;;;;;;;;;13.56;69.38;101528.00;7362896;19;19922;-60
2022/02/07 14:41:13;;;;;;;;;;;;;;;13.56;68.99;101525.38;7365290;19;19975;-59
2022/02/07 14:43:39;;;;;;;;;;;;;;;13.55;69.03;101525.41;7362976;19;20292;-61
2022/02/07 14:48:35;;;;;;;;;;;;;;;13.55;69.34;101514.91;7374119;19;19927;-60
2022/02/07 14:51:02;;;;;;;;;;;;;;;13.55;68.76;101510.53;7363102;19;19919;-62
2022/02/07 14:53:27;;;;;;;;;;;;;;;13.55;68.78;101500.03;7359737;19;19926;-60
2022/02/07 14:55:53;;;;;;;;;;;;;;;13.56;68.68;101522.75;7363008;19;19919;-60
2022/02/07 14:58:19;;;;;;;;;;;;;;;13.57;68.90;101508.72;7374557;19;19926;-60
2022/02/07 15:00:45;;;;;;;;;;;;;;;13.60;68.38;101519.16;7367646;19;19925;-60
2022/02/07 15:03:12;;;;;;;;;;;;;;;13.62;68.29;101509.47;7367228;19;19923;-60
2022/02/07 15:05:37;;;;;;;;;;;;;;;13.64;68.38;101506.84;7362500;19;20595;-60
2022/02/07 15:08:03;;;;;;;;;;;;;;;13.65;68.51;101517.28;7362032;19;19919;-59
2022/02/07 15:10:29;;;;;;;;;;;;;;;13.66;68.50;101524.28;7362102;19;19938;-60
2022/02/07 15:12:54;;;;;;;;;;;;;;;13.66;68.49;101519.03;7360408;19;20018;-60
2022/02/07 15:15:19;;;;;;;;;;;;;;;13.68;68.44;101509.34;7362328;19;20619;-60
2022/02/07 15:17:45;;;;;;;;;;;;;;;13.69;68.05;101518.09;7362337;19;19923;-59
2022/02/07 15:20:13;;;;;;;;;;;;;;;13.70;67.81;101520.69;7360292;19;19929;-61
2022/02/07 15:22:40;;;;;;;;;;;;;;;13.70;67.70;101535.56;7374277;19;19966;-61
2022/02/07 15:25:06;;;;;;;;;;;;;;;13.69;67.49;101518.97;7368378;19;25179;-59
2022/02/07 15:27:32;;;;;;;;;;;;;;;13.69;67.78;101515.47;7328932;19;20935;-61
2022/02/07 15:29:58;;;;;;;;;;;;;;;13.70;67.59;101509.31;1097775;19;10001916;-59